KMMK 192353Z AUTO 31007KT 10SM OVC050 06/M04 A2964 RMK AO2 SLP037 T00561044 10094 20056 51043